< < Back
Terminal Aerodrome Forecast


Current Version              Previous Versions:   1  2  3  4  5  6  7  8  9  

Terminal Aerodrome Forecast

311
FTUS42 KILM 301100
TAFFLO
TAF
KFLO 301120Z 3012/3112 02007KT P6SM SCT030 BKN060
     FM301500 03009KT P6SM SCT050
     FM310000 03004KT P6SM SKC=

Latest METAR

928
SAUS70 KWBC 310500 RRK
MTRFLO
METAR KFLO 310453Z AUTO 07004KT 10SM CLR 11/07 A2995 RMK AO2 SLP139
T01110072 402220106


USA.gov is the U.S. government's official web portal to all federal, state and local government web resources and services.